Terminal Aerodrome Forecast
Issued by NWS

Home | Current Version | Previous Version | Graphics & Text | Print | Product List | Glossary On
Versions: 1 2 3 4 5 6 7 8 9 10 11 12 13 14 15 16 17 18 19 20
254
FTUS42 KMHX 220001 AAA
TAFPGV
TAF AMD
KPGV 220001Z 2200/2224 18006KT P6SM FEW250
     FM220500 VRB04KT 5SM BR FEW008 SCT250
     FM220800 VRB04KT 2SM BR BKN008
     FM221000 VRB04KT 1/2SM FG BKN003
     FM221300 20005KT 2SM BR BKN003
     FM221500 21008KT P6SM BKN008
     FM221700 22009KT P6SM SCT050
      AMD LTD TO CLD VIS AND WIND=

USA.gov is the U.S. government's official web portal to all federal, state and local government web resources and services.